createdAt,value
2019-03-12T00:01:32.629Z,2.68
2019-03-12T00:06:37.454Z,2.78
2019-03-12T00:11:41.475Z,2.74
2019-03-12T00:16:45.566Z,2.70
2019-03-12T00:21:49.671Z,2.51
2019-03-12T00:26:53.859Z,2.37
2019-03-12T00:31:57.896Z,2.51
2019-03-12T00:37:01.917Z,2.54
2019-03-12T00:42:05.952Z,2.47
2019-03-12T00:47:10.009Z,2.33
2019-03-12T00:52:14.095Z,2.10
2019-03-12T00:57:18.259Z,2.12
2019-03-12T01:02:22.268Z,2.32
2019-03-12T01:07:26.321Z,2.18
2019-03-12T01:12:30.976Z,2.31
2019-03-12T01:17:35.117Z,2.33
2019-03-12T01:22:40.075Z,2.42
2019-03-12T01:27:44.089Z,2.46
2019-03-12T01:32:48.136Z,2.46
2019-03-12T01:37:52.302Z,2.54
2019-03-12T01:42:56.331Z,2.51
2019-03-12T01:48:00.371Z,2.52
2019-03-12T01:53:04.372Z,2.59
2019-03-12T01:58:08.410Z,2.59
2019-03-12T02:03:12.470Z,2.63
2019-03-12T02:08:16.515Z,2.61
2019-03-12T02:13:20.570Z,2.74
2019-03-12T02:18:24.640Z,2.76
2019-03-12T02:23:29.250Z,2.72
2019-03-12T02:28:33.344Z,2.81
2019-03-12T02:33:37.332Z,2.80
2019-03-12T02:38:41.493Z,2.75
2019-03-12T02:43:45.542Z,2.71
2019-03-12T02:48:49.565Z,2.82
2019-03-12T02:53:53.563Z,2.71
2019-03-12T02:58:57.663Z,2.75
2019-03-12T03:04:01.707Z,2.71
2019-03-12T03:09:06.687Z,2.74
2019-03-12T03:14:29.714Z,2.78
2019-03-12T03:19:34.255Z,2.83
2019-03-12T03:24:38.295Z,2.82
2019-03-12T03:29:42.422Z,2.86
2019-03-12T03:34:46.446Z,2.90
2019-03-12T03:39:50.517Z,2.90
2019-03-12T03:44:54.650Z,2.95
2019-03-12T03:49:58.717Z,2.96
2019-03-12T03:55:02.795Z,2.94
2019-03-12T04:00:09.459Z,2.97
2019-03-12T04:05:13.582Z,3.07
2019-03-12T04:10:17.654Z,2.95
2019-03-12T04:15:21.765Z,2.93
2019-03-12T04:20:25.767Z,2.88
2019-03-12T04:25:29.788Z,2.96
2019-03-12T04:30:34.084Z,2.98
2019-03-12T04:35:38.087Z,2.95
2019-03-12T04:40:42.420Z,2.97
2019-03-12T04:45:46.492Z,2.90
2019-03-12T04:50:51.784Z,2.93
2019-03-12T04:55:55.817Z,2.86
2019-03-12T05:00:59.923Z,2.89
2019-03-12T05:06:04.150Z,2.86
2019-03-12T05:11:08.227Z,2.72
2019-03-12T05:16:12.232Z,2.65
2019-03-12T05:21:16.289Z,2.55
2019-03-12T05:26:20.700Z,2.30
2019-03-12T05:31:24.817Z,1.95
2019-03-12T05:36:28.910Z,1.73
2019-03-12T05:41:33.043Z,1.56
2019-03-12T05:46:37.078Z,1.76
2019-03-12T05:51:41.118Z,1.87
2019-03-12T05:56:45.154Z,1.96
2019-03-12T06:01:49.304Z,2.17
2019-03-12T06:06:53.398Z,2.45
2019-03-12T06:11:57.716Z,2.64
2019-03-12T06:17:01.748Z,2.75
2019-03-12T06:22:05.810Z,3.11
2019-03-12T06:27:10.644Z,3.40
2019-03-12T06:32:14.656Z,3.29
2019-03-12T06:37:18.708Z,3.29
2019-03-12T06:42:22.701Z,3.18
2019-03-12T06:47:26.818Z,3.37
2019-03-12T06:52:30.935Z,3.56
2019-03-12T06:57:38.373Z,3.60
2019-03-12T07:02:42.958Z,3.70
2019-03-12T07:07:47.464Z,3.90
2019-03-12T07:12:51.545Z,4.22
2019-03-12T07:17:55.877Z,4.68
2019-03-12T07:22:59.897Z,4.68
2019-03-12T07:28:03.966Z,4.33
2019-03-12T07:33:08.139Z,4.98
2019-03-12T07:38:12.772Z,5.83
2019-03-12T07:43:16.956Z,6.28
2019-03-12T07:48:21.024Z,6.02
2019-03-12T07:53:25.041Z,5.98
2019-03-12T07:58:35.676Z,5.93
2019-03-12T08:03:34.877Z,5.94
2019-03-12T08:08:38.930Z,6.32
2019-03-12T08:13:42.960Z,6.89
2019-03-12T08:18:46.975Z,7.13
2019-03-12T08:23:51.037Z,6.86
2019-03-12T08:28:55.118Z,6.52
2019-03-12T08:33:59.176Z,5.97
2019-03-12T08:39:04.142Z,5.70
2019-03-12T08:44:08.504Z,5.52
2019-03-12T08:49:12.576Z,5.46
2019-03-12T08:54:16.964Z,5.78
2019-03-12T08:59:21.105Z,5.90
2019-03-12T09:04:25.116Z,6.09
2019-03-12T09:09:29.271Z,6.31
2019-03-12T09:14:33.310Z,6.73
2019-03-12T09:19:37.412Z,7.45
2019-03-12T09:24:43.196Z,8.06
2019-03-12T09:29:47.244Z,8.10
2019-03-12T09:34:51.625Z,8.61
2019-03-12T09:39:55.695Z,8.48
2019-03-12T09:44:59.749Z,8.86
2019-03-12T09:50:04.179Z,9.06
2019-03-12T09:55:08.537Z,8.63
2019-03-12T10:00:16.576Z,9.64
2019-03-12T10:05:18.773Z,9.92
2019-03-12T10:10:22.801Z,10.43
2019-03-12T10:15:26.863Z,11.36
2019-03-12T10:20:30.904Z,10.42
2019-03-12T10:25:34.947Z,10.41
2019-03-12T10:30:38.976Z,9.54
2019-03-12T10:35:43.305Z,10.16
2019-03-12T10:40:47.686Z,10.07
2019-03-12T10:45:51.735Z,9.49
2019-03-12T10:50:55.770Z,10.02
2019-03-12T10:55:59.802Z,10.33
2019-03-12T11:01:05.698Z,11.21
2019-03-12T11:06:10.118Z,12.23
2019-03-12T11:11:17.257Z,12.12
2019-03-12T11:16:21.657Z,12.87
2019-03-12T11:21:25.697Z,12.15
2019-03-12T11:26:29.857Z,12.45
2019-03-12T11:31:33.883Z,11.18
2019-03-12T11:36:39.227Z,11.43
2019-03-12T11:41:44.605Z,11.00
2019-03-12T11:46:50.625Z,11.43
2019-03-12T11:51:56.277Z,11.63
2019-03-12T11:57:02.546Z,11.52
2019-03-12T12:02:07.653Z,11.50
2019-03-12T12:07:14.280Z,11.78
2019-03-12T12:12:18.384Z,12.14
2019-03-12T12:17:22.419Z,10.96
2019-03-12T12:22:26.462Z,10.20
2019-03-12T12:27:30.581Z,10.47
2019-03-12T12:32:34.693Z,11.00
2019-03-12T12:37:38.774Z,10.68
2019-03-12T12:42:42.801Z,10.77
2019-03-12T12:47:46.856Z,10.77
2019-03-12T12:52:50.900Z,10.43
2019-03-12T12:57:54.948Z,10.85
2019-03-12T13:02:58.975Z,11.09
2019-03-12T13:08:03.046Z,10.41
2019-03-12T13:13:07.125Z,10.38
2019-03-12T13:18:11.188Z,11.15
2019-03-12T13:23:15.294Z,11.01
2019-03-12T13:28:19.433Z,10.82
2019-03-12T13:33:23.674Z,11.06
2019-03-12T13:38:27.812Z,10.65
2019-03-12T13:43:31.881Z,10.43
2019-03-12T13:48:36.021Z,10.63
2019-03-12T13:53:40.041Z,10.21
2019-03-12T13:58:44.066Z,9.58
2019-03-12T14:03:48.170Z,9.58
2019-03-12T14:08:52.192Z,9.72
2019-03-12T14:13:56.295Z,10.30
2019-03-12T14:19:00.799Z,10.26
2019-03-12T14:24:04.818Z,10.09
2019-03-12T14:29:08.960Z,9.95
2019-03-12T14:34:13.054Z,10.01
2019-03-12T14:39:18.550Z,9.90
2019-03-12T14:44:22.596Z,9.90
2019-03-12T14:49:26.644Z,9.95
2019-03-12T14:54:30.768Z,10.00
2019-03-12T14:59:35.485Z,9.88
2019-03-12T15:04:39.728Z,9.74
2019-03-12T15:09:43.873Z,9.66
2019-03-12T15:14:48.259Z,9.61
2019-03-12T15:19:52.322Z,9.63
2019-03-12T15:24:56.419Z,9.48
2019-03-12T15:30:19.300Z,9.30
2019-03-12T15:35:25.221Z,9.21
2019-03-12T15:40:30.206Z,8.90
2019-03-12T15:45:36.015Z,8.92
2019-03-12T15:50:41.675Z,8.86
2019-03-12T15:55:47.617Z,8.88
2019-03-12T16:00:52.333Z,8.71
2019-03-12T16:05:56.577Z,8.74
2019-03-12T16:11:00.933Z,8.68
2019-03-12T16:16:05.174Z,8.53
2019-03-12T16:21:09.483Z,8.38
2019-03-12T16:26:14.378Z,8.19
2019-03-12T16:31:18.988Z,8.06
2019-03-12T16:36:23.499Z,7.93
2019-03-12T16:41:29.741Z,7.80
2019-03-12T16:46:35.393Z,7.74
2019-03-12T16:51:41.220Z,7.62
2019-03-12T16:56:48.621Z,7.53
2019-03-12T17:01:56.114Z,7.44
2019-03-12T17:07:02.712Z,7.44
2019-03-12T17:12:08.740Z,7.35
2019-03-12T17:17:15.306Z,7.30
2019-03-12T17:22:20.453Z,7.23
2019-03-12T17:27:24.720Z,7.23
2019-03-12T17:32:29.478Z,7.22
2019-03-12T17:37:34.846Z,7.22
2019-03-12T17:42:39.179Z,7.17
2019-03-12T17:47:43.358Z,7.12
2019-03-12T17:52:47.671Z,7.12
2019-03-12T17:57:51.959Z,7.17
2019-03-12T18:02:56.170Z,7.15
2019-03-12T18:08:02.573Z,7.15
2019-03-12T18:13:09.702Z,7.15
2019-03-12T18:18:15.353Z,7.20
2019-03-12T18:23:21.411Z,7.23
2019-03-12T18:28:28.639Z,7.12
2019-03-12T18:33:33.232Z,7.23
2019-03-12T18:38:38.648Z,7.13
2019-03-12T18:43:42.881Z,7.25
2019-03-12T18:48:47.106Z,7.40
2019-03-12T18:53:52.202Z,7.44
2019-03-12T18:58:56.287Z,7.44
2019-03-12T19:04:00.835Z,7.58
2019-03-12T19:09:06.703Z,7.47
2019-03-12T19:14:10.767Z,7.48
2019-03-12T19:19:15.255Z,7.52
2019-03-12T19:24:19.299Z,7.28
2019-03-12T19:29:23.422Z,7.40
2019-03-12T19:34:27.631Z,7.47
2019-03-12T19:39:31.765Z,7.27
2019-03-12T19:44:39.076Z,7.25
2019-03-12T19:49:50.460Z,7.11
2019-03-12T19:55:00.890Z,7.03
2019-03-12T20:00:11.612Z,6.88
2019-03-12T20:05:18.310Z,6.77
2019-03-12T20:11:28.212Z,6.78
2019-03-12T20:17:41.718Z,6.53
2019-03-12T20:23:31.804Z,6.42
2019-03-12T20:29:12.701Z,6.34
2019-03-12T20:35:19.742Z,6.45
2019-03-12T20:41:04.956Z,6.40
2019-03-12T20:46:55.936Z,6.29
2019-03-12T20:52:37.202Z,6.37
2019-03-12T20:58:22.287Z,6.45
2019-03-12T21:04:20.913Z,6.44
2019-03-12T21:10:00.407Z,6.36
2019-03-12T21:15:44.213Z,6.46
2019-03-12T21:21:23.522Z,6.51
2019-03-12T21:26:53.681Z,6.60
2019-03-12T21:31:58.086Z,6.65
2019-03-12T21:37:02.745Z,6.59
2019-03-12T21:42:08.035Z,6.51
2019-03-12T21:47:14.265Z,6.64
2019-03-12T21:52:21.367Z,6.65
2019-03-12T21:57:29.322Z,6.64
2019-03-12T22:02:33.601Z,6.73
2019-03-12T22:07:39.528Z,6.62
2019-03-12T22:12:43.993Z,6.63
2019-03-12T22:17:48.284Z,6.65
2019-03-12T22:22:52.359Z,6.59
2019-03-12T22:27:56.452Z,6.57
2019-03-12T22:33:00.524Z,6.43
2019-03-12T22:38:04.672Z,6.51
2019-03-12T22:43:08.793Z,6.57
2019-03-12T22:48:12.830Z,6.61
2019-03-12T22:53:16.885Z,6.55
2019-03-12T22:58:20.992Z,6.68
2019-03-12T23:03:25.011Z,6.61
2019-03-12T23:08:29.067Z,6.72
2019-03-12T23:13:33.167Z,6.76
2019-03-12T23:18:37.746Z,7.07
2019-03-12T23:23:41.786Z,7.03
2019-03-12T23:28:45.962Z,7.11
2019-03-12T23:33:50.551Z,7.11
2019-03-12T23:38:54.560Z,7.05
2019-03-12T23:43:58.592Z,7.21
2019-03-12T23:49:02.674Z,7.44
2019-03-12T23:54:06.687Z,7.47
2019-03-12T23:59:11.028Z,7.52
